Time;durP1;ratioP1;P1;durP2;ratioP2;P2;SDS_P1;SDS_P2;PMS_P1;PMS_P2;Temp;Humidity;BMP_temperature;BMP_pressure;BME280_temperature;BME280_humidity;BME280_pressure;Samples;Min_cycle;Max_cycle;Signal;HPM_P1;HPM_P2
2023/05/10 00:01:06;;;;;;;12.40;11.50;;;;;;;8.92;100.00;93053.34;5089810;28;20220;-72
2023/05/10 00:03:31;;;;;;;12.37;11.40;;;;;;;8.89;100.00;93054.63;5089847;28;20192;-72
2023/05/10 00:05:56;;;;;;;12.77;11.87;;;;;;;8.83;100.00;93050.47;5089757;28;20221;-72
2023/05/10 00:08:22;;;;;;;10.43;9.77;;;;;;;8.83;100.00;93047.06;5090058;28;20192;-73
2023/05/10 00:10:47;;;;;;;11.93;11.20;;;;;;;8.86;100.00;93042.13;5089614;28;20236;-72
2023/05/10 00:13:13;;;;;;;12.27;11.47;;;;;;;8.80;100.00;93048.38;5089650;28;20189;-72
2023/05/10 00:15:39;;;;;;;12.53;11.70;;;;;;;8.85;100.00;93040.59;5089593;28;20225;-72
2023/05/10 00:18:04;;;;;;;11.83;10.97;;;;;;;8.86;100.00;93043.94;5089603;28;20196;-72
2023/05/10 00:20:30;;;;;;;12.77;11.97;;;;;;;8.86;100.00;93041.34;5087975;28;20231;-72
2023/05/10 00:22:55;;;;;;;11.33;10.53;;;;;;;8.82;100.00;93025.47;5089645;28;20195;-72
2023/05/10 00:25:21;;;;;;;14.17;13.27;;;;;;;8.78;100.00;93013.25;5089254;28;20235;-72
2023/05/10 00:27:47;;;;;;;13.40;12.40;;;;;;;8.88;100.00;93031.47;5089857;28;20193;-72
2023/05/10 00:30:13;;;;;;;12.47;11.53;;;;;;;8.69;100.00;93030.38;5089906;28;20224;-72
2023/05/10 00:32:38;;;;;;;11.97;11.20;;;;;;;8.69;100.00;93027.75;5089477;28;20205;-72
2023/05/10 00:35:04;;;;;;;12.83;11.93;;;;;;;8.78;100.00;93041.88;5089064;28;20262;-72
2023/05/10 00:37:30;;;;;;;13.07;12.07;;;;;;;8.78;100.00;93029.63;5089410;28;20222;-72
2023/05/10 00:39:55;;;;;;;12.13;11.33;;;;;;;8.83;100.00;93036.66;5089802;28;20228;-72
2023/05/10 00:42:22;;;;;;;13.37;12.47;;;;;;;8.74;100.00;93023.38;5076360;28;20256;-72
2023/05/10 00:44:47;;;;;;;13.43;12.53;;;;;;;8.81;100.00;93029.09;5092840;28;20235;-72
2023/05/10 00:47:13;;;;;;;12.73;11.83;;;;;;;8.86;100.00;93029.13;5093654;28;20188;-72
2023/05/10 00:49:39;;;;;;;11.53;10.73;;;;;;;8.86;100.00;93023.91;5092861;28;20232;-72
2023/05/10 00:52:04;;;;;;;12.87;12.03;;;;;;;8.83;100.00;93027.03;5093246;28;20185;-72
2023/05/10 00:54:30;;;;;;;13.13;12.33;;;;;;;8.85;100.00;93018.97;5093109;28;20593;-72
2023/05/10 00:56:56;;;;;;;11.20;10.50;;;;;;;8.64;100.00;93018.13;5093101;28;20204;-72
2023/05/10 00:59:22;;;;;;;13.33;12.53;;;;;;;8.73;100.00;93005.41;5093407;28;20191;-72
2023/05/10 01:01:47;;;;;;;12.50;11.80;;;;;;;8.74;100.00;93017.38;5093171;28;20189;-73
2023/05/10 01:04:14;;;;;;;11.80;10.97;;;;;;;8.74;100.00;93001.75;5099999;28;20188;-72
2023/05/10 01:06:41;;;;;;;11.50;10.70;;;;;;;8.50;100.00;92991.03;5095497;28;20233;-72
2023/05/10 01:09:06;;;;;;;12.60;11.60;;;;;;;8.76;100.00;93015.31;5093406;28;20173;-72
2023/05/10 01:11:36;;;;;;;12.10;11.30;;;;;;;8.66;100.00;93010.06;5092530;28;20402;-72
2023/05/10 01:14:02;;;;;;;12.23;11.40;;;;;;;8.68;100.00;93010.59;5093371;28;20188;-72
2023/05/10 01:16:30;;;;;;;13.00;12.10;;;;;;;8.60;100.00;93008.50;5092178;28;20296;-72
2023/05/10 01:18:55;;;;;;;13.00;12.17;;;;;;;8.51;100.00;92992.59;5092761;28;20196;-72
2023/05/10 01:21:46;;;;;;;12.87;11.93;;;;;;;8.66;100.00;93010.06;5092527;28;20216;-72
2023/05/10 01:24:33;;;;;;;11.43;10.70;;;;;;;8.63;100.00;93005.38;5093143;28;20976;-72
2023/05/10 01:27:08;;;;;;;12.17;11.40;;;;;;;8.70;100.00;93000.72;5092780;28;20224;-72
2023/05/10 01:30:00;;;;;;;11.40;10.70;;;;;;;8.65;100.00;92998.09;5092303;28;20172;-72
2023/05/10 01:32:35;;;;;;;12.27;11.50;;;;;;;8.73;100.00;93000.19;5066614;28;20287;-72
2023/05/10 01:35:16;;;;;;;11.60;10.93;;;;;;;8.67;100.00;92988.22;5092160;28;20234;-71
2023/05/10 01:37:45;;;;;;;12.07;11.37;;;;;;;8.72;100.00;92993.41;5092221;28;20232;-72
2023/05/10 01:40:18;;;;;;;12.13;11.37;;;;;;;8.66;100.00;92982.22;5092452;28;20224;-72
2023/05/10 01:42:53;;;;;;;11.97;11.27;;;;;;;8.56;100.00;92989.22;5092248;28;20195;-72
2023/05/10 01:45:44;;;;;;;12.20;11.30;;;;;;;8.38;100.00;92984.47;5092115;28;20236;-72
2023/05/10 01:48:11;;;;;;;11.77;11.07;;;;;;;8.42;100.00;92972.53;5049990;28;20216;-72
2023/05/10 01:50:41;;;;;;;11.90;11.10;;;;;;;8.48;100.00;92961.09;5090320;28;20219;-72
2023/05/10 01:53:09;;;;;;;10.67;10.07;;;;;;;8.53;100.00;92974.13;5091832;28;20197;-72
2023/05/10 01:55:39;;;;;;;11.60;10.90;;;;;;;8.47;100.00;92975.16;5091842;28;20235;-72
2023/05/10 01:58:15;;;;;;;10.67;10.07;;;;;;;8.45;100.00;92980.59;5092350;28;20185;-72
2023/05/10 02:00:44;;;;;;;10.30;9.77;;;;;;;8.45;100.00;92977.22;5092098;28;20222;-72
2023/05/10 02:03:11;;;;;;;10.70;10.10;;;;;;;8.39;100.00;92979.03;5092160;28;20193;-71
2023/05/10 02:05:38;;;;;;;11.17;10.67;;;;;;;8.34;100.00;92980.84;5091839;28;20240;-72
2023/05/10 02:08:08;;;;;;;10.30;9.80;;;;;;;8.31;100.00;92966.53;5092219;28;20184;-72
2023/05/10 02:10:37;;;;;;;10.60;10.10;;;;;;;8.36;100.00;92963.94;5091814;28;20252;-72
2023/05/10 02:13:05;;;;;;;10.53;9.93;;;;;;;8.32;100.00;92964.69;5092134;28;20181;-72
2023/05/10 02:15:32;;;;;;;10.17;9.67;;;;;;;8.41;100.00;92960.56;5091622;28;20235;-72
2023/05/10 02:18:00;;;;;;;9.67;9.17;;;;;;;8.37;100.00;92965.50;5092231;28;20283;-72
2023/05/10 02:20:26;;;;;;;10.17;9.57;;;;;;;8.23;100.00;92958.44;5091400;28;20280;-72
2023/05/10 02:22:53;;;;;;;10.47;9.97;;;;;;;8.27;100.00;92972.47;5091767;28;20217;-72
2023/05/10 02:25:21;;;;;;;10.27;9.77;;;;;;;8.23;100.00;92963.63;5080590;28;20292;-72
2023/05/10 02:27:48;;;;;;;10.20;9.70;;;;;;;8.04;100.00;92960.66;5089916;28;20185;-72
2023/05/10 02:30:15;;;;;;;10.33;9.63;;;;;;;8.01;100.00;92966.38;5091852;28;20246;-72
2023/05/10 02:32:42;;;;;;;12.80;12.00;;;;;;;7.85;100.00;92957.72;5091396;28;20188;-72
2023/05/10 02:35:09;;;;;;;10.57;10.07;;;;;;;7.92;100.00;92958.28;5091108;28;20228;-72
2023/05/10 02:37:36;;;;;;;11.13;10.63;;;;;;;7.81;100.00;92959.25;5091117;28;20205;-72
2023/05/10 02:40:03;;;;;;;10.23;9.67;;;;;;;7.90;100.00;92967.38;5091501;28;20225;-72
2023/05/10 02:42:32;;;;;;;10.27;9.53;;;;;;;7.84;100.00;92966.53;5091242;28;20188;-72
2023/05/10 02:45:01;;;;;;;11.13;10.50;;;;;;;7.70;100.00;92960.25;5090919;28;20240;-72
2023/05/10 02:47:28;;;;;;;10.57;9.97;;;;;;;7.72;100.00;92957.41;5091219;28;20191;-72
2023/05/10 02:49:53;;;;;;;10.97;10.37;;;;;;;7.70;100.00;92962.88;5090951;28;20304;-72
2023/05/10 02:52:24;;;;;;;10.23;9.53;;;;;;;7.48;100.00;92936.22;5091153;28;20185;-72
2023/05/10 02:54:54;;;;;;;10.73;10.13;;;;;;;7.69;100.00;92952.69;5090935;28;20227;-72
2023/05/10 02:57:29;;;;;;;9.57;9.17;;;;;;;7.70;100.00;92944.69;5090764;28;20745;-72
2023/05/10 02:59:55;;;;;;;10.73;9.83;;;;;;;7.45;100.00;92944.53;5091188;28;20224;-71
2023/05/10 03:02:20;;;;;;;10.20;9.70;;;;;;;7.42;100.00;92942.44;5091106;28;20180;-73
2023/05/10 03:04:46;;;;;;;10.43;9.90;;;;;;;7.54;100.00;92942.22;5071820;28;20228;-72
2023/05/10 03:07:11;;;;;;;9.47;9.07;;;;;;;7.42;100.00;92947.63;5091385;28;20180;-72
2023/05/10 03:09:37;;;;;;;9.77;9.37;;;;;;;7.54;100.00;92945.63;5090422;28;22457;-71
2023/05/10 03:12:20;;;;;;;9.43;8.87;;;;;;;7.62;100.00;92937.34;5091018;28;20181;-73
2023/05/10 03:15:04;;;;;;;10.10;9.43;;;;;;;7.65;100.00;92949.03;5090130;28;20219;-72
2023/05/10 03:17:40;;;;;;;10.53;9.83;;;;;;;7.68;100.00;92943.34;5090781;28;20213;-72
2023/05/10 03:20:16;;;;;;;9.60;9.10;;;;;;;7.61;100.00;92951.34;5089462;28;20212;-72
2023/05/10 03:22:49;;;;;;;10.93;10.13;;;;;;;7.61;100.00;92951.34;5090648;28;20183;-72
2023/05/10 03:25:18;;;;;;;9.80;9.40;;;;;;;7.78;100.00;92959.75;5079797;28;20310;-72
2023/05/10 03:27:45;;;;;;;11.17;10.47;;;;;;;7.79;100.00;92948.34;5090195;28;20195;-72
2023/05/10 03:30:12;;;;;;;9.70;9.20;;;;;;;7.80;100.00;92952.50;5090519;28;20292;-72
2023/05/10 03:32:37;;;;;;;11.07;10.50;;;;;;;7.76;100.00;92958.47;5090002;28;20548;-72
2023/05/10 03:35:10;;;;;;;9.90;9.40;;;;;;;7.73;100.00;92964.16;5089865;28;20281;-72
2023/05/10 03:37:35;;;;;;;11.13;10.43;;;;;;;7.68;100.00;92946.72;5089908;28;20208;-72
2023/05/10 03:40:02;;;;;;;10.33;9.73;;;;;;;7.71;100.00;92961.81;5089994;28;20213;-72
2023/05/10 03:42:27;;;;;;;11.03;10.43;;;;;;;7.69;100.00;92969.06;5071919;28;20247;-72
2023/05/10 03:44:53;;;;;;;10.37;9.77;;;;;;;7.75;100.00;92978.47;5089536;28;20243;-72
2023/05/10 03:47:18;;;;;;;11.00;10.50;;;;;;;7.69;100.00;92984.66;5089850;28;20222;-73
2023/05/10 03:49:44;;;;;;;10.53;9.93;;;;;;;7.58;100.00;92977.84;5087826;28;20239;-71
2023/05/10 03:52:09;;;;;;;10.73;10.03;;;;;;;7.46;100.00;92972.06;5089475;28;20203;-70
2023/05/10 03:54:34;;;;;;;11.57;10.87;;;;;;;7.43;100.00;92977.75;5088907;28;20197;-69
2023/05/10 03:57:00;;;;;;;11.97;11.17;;;;;;;7.37;100.00;92991.75;5089034;28;20928;-70
2023/05/10 03:59:26;;;;;;;11.97;11.17;;;;;;;7.35;100.00;92999.00;5088360;28;20189;-70
2023/05/10 04:01:51;;;;;;;13.50;12.67;;;;;;;7.35;100.00;92993.81;5071650;28;20245;-69
2023/05/10 04:04:18;;;;;;;12.80;11.93;;;;;;;7.32;100.00;92999.50;5088216;28;20253;-69
2023/05/10 04:06:44;;;;;;;12.43;11.63;;;;;;;7.18;100.00;92998.34;5067530;28;20210;-71
2023/05/10 04:09:10;;;;;;;11.93;11.07;;;;;;;7.16;100.00;92997.03;5067864;28;20188;-69
2023/05/10 04:11:36;;;;;;;11.87;11.00;;;;;;;7.11;100.00;93007.38;5065113;28;20236;-69
2023/05/10 04:14:01;;;;;;;12.13;11.27;;;;;;;7.19;100.00;93002.50;5065953;28;20189;-70
2023/05/10 04:16:27;;;;;;;13.23;12.33;;;;;;;7.20;100.00;93009.28;5082936;28;20224;-66
2023/05/10 04:18:52;;;;;;;11.87;11.17;;;;;;;7.30;100.00;93006.75;5087569;28;20215;-70
2023/05/10 04:21:18;;;;;;;13.13;12.23;;;;;;;7.25;100.00;93006.72;5087116;28;20239;-71
2023/05/10 04:23:43;;;;;;;12.63;11.67;;;;;;;7.32;100.00;93004.69;5087626;28;20196;-70
2023/05/10 04:26:09;;;;;;;12.60;11.50;;;;;;;7.37;100.00;92999.53;5087115;28;20220;-69
2023/05/10 04:28:35;;;;;;;13.87;12.97;;;;;;;7.52;100.00;92999.63;5087781;28;20187;-71
2023/05/10 04:31:04;;;;;;;13.10;12.20;;;;;;;7.42;100.00;93003.97;5087432;28;20231;-70
2023/05/10 04:33:30;;;;;;;14.27;13.17;;;;;;;7.44;100.00;93002.69;5078437;28;20196;-69
2023/05/10 04:35:56;;;;;;;12.50;11.60;;;;;;;7.47;100.00;93007.38;5086258;28;20221;-69
2023/05/10 04:38:21;;;;;;;12.43;11.53;;;;;;;7.31;100.00;92997.94;5086784;28;20200;-69
2023/05/10 04:40:46;;;;;;;13.33;12.43;;;;;;;7.34;100.00;93009.63;5087025;28;21001;-69
2023/05/10 04:43:12;;;;;;;12.80;11.70;;;;;;;7.34;100.00;93007.81;5087636;28;20466;-69
2023/05/10 04:45:37;;;;;;;14.70;13.60;;;;;;;7.11;100.00;92984.81;5086645;28;20238;-69
2023/05/10 04:48:03;;;;;;;13.67;12.47;;;;;;;7.21;100.00;93002.25;5087549;28;20267;-70
2023/05/10 04:50:28;;;;;;;13.80;12.90;;;;;;;7.37;100.00;93007.31;5086721;28;21022;-70
2023/05/10 04:52:53;;;;;;;14.23;12.73;;;;;;;7.38;100.00;93006.28;5081096;28;20173;-68
2023/05/10 04:55:19;;;;;;;10.77;10.07;;;;;;;7.55;100.00;92995.75;5087111;28;20216;-69
2023/05/10 04:57:44;;;;;;;13.17;12.27;;;;;;;7.69;100.00;92995.06;5085004;28;20208;-69
2023/05/10 05:00:11;;;;;;;12.67;11.80;;;;;;;7.73;100.00;92987.56;5086958;28;20232;-69
2023/05/10 05:02:36;;;;;;;11.93;11.17;;;;;;;7.96;100.00;92995.75;5087095;28;20194;-68
2023/05/10 05:05:01;;;;;;;11.60;10.80;;;;;;;8.01;100.00;92997.56;5086751;28;20220;-69
2023/05/10 05:07:27;;;;;;;12.37;11.50;;;;;;;7.93;100.00;93000.66;5087535;28;20193;-69
2023/05/10 05:09:52;;;;;;;12.27;11.47;;;;;;;7.85;100.00;93001.91;5087295;28;20226;-71
2023/05/10 05:12:18;;;;;;;12.70;11.67;;;;;;;8.00;100.00;93006.41;5087541;28;20185;-69
2023/05/10 05:14:43;;;;;;;11.93;11.23;;;;;;;7.96;100.00;93011.34;5087298;28;20236;-68
2023/05/10 05:17:08;;;;;;;12.90;12.00;;;;;;;7.98;100.00;93013.69;5071542;28;20224;-68
2023/05/10 05:19:34;;;;;;;12.30;11.50;;;;;;;8.04;100.00;93016.06;5087350;28;20212;-68
2023/05/10 05:21:59;;;;;;;12.60;11.80;;;;;;;8.06;100.00;93011.38;5088102;28;20199;-68
2023/05/10 05:24:25;;;;;;;11.37;10.60;;;;;;;8.01;100.00;93026.97;5091644;28;20180;-69
2023/05/10 05:26:50;;;;;;;11.47;10.77;;;;;;;8.14;100.00;93023.91;5085839;28;20244;-68
2023/05/10 05:29:16;;;;;;;13.43;12.43;;;;;;;8.09;100.00;93029.06;5091585;28;20214;-67
2023/05/10 05:31:41;;;;;;;13.13;12.13;;;;;;;8.11;100.00;93023.59;5091859;28;20284;-69
2023/05/10 05:34:06;;;;;;;13.83;12.73;;;;;;;8.18;100.00;93037.19;5088385;28;20463;-71
2023/05/10 05:36:32;;;;;;;13.37;12.50;;;;;;;7.94;100.00;93023.78;5090073;28;20221;-71
2023/05/10 05:38:58;;;;;;;13.10;12.20;;;;;;;7.96;100.00;93037.34;5090967;28;20258;-70
2023/05/10 05:41:24;;;;;;;14.50;13.50;;;;;;;8.18;100.00;93042.38;5087390;28;20216;-69
2023/05/10 05:43:50;;;;;;;13.13;12.13;;;;;;;8.08;99.95;93037.91;5089472;28;20234;-69
2023/05/10 05:46:15;;;;;;;13.70;12.70;;;;;;;8.10;100.00;93048.06;5090137;28;20225;-70
2023/05/10 05:48:40;;;;;;;14.00;12.90;;;;;;;8.06;100.00;93026.97;5089951;28;20203;-70
2023/05/10 05:51:06;;;;;;;13.50;12.50;;;;;;;8.15;100.00;93053.28;5090595;28;20216;-70
2023/05/10 05:53:31;;;;;;;14.43;13.43;;;;;;;7.99;100.00;93056.84;5090852;28;20185;-71
2023/05/10 05:55:58;;;;;;;44.80;41.80;;;;;;;7.96;100.00;93052.94;5090593;28;20228;-71
2023/05/10 05:58:25;;;;;;;14.63;13.30;;;;;;;8.25;100.00;93066.34;5088248;28;20200;-70
2023/05/10 06:00:51;;;;;;;16.30;14.87;;;;;;;8.17;100.00;93075.41;5090890;28;20227;-69
2023/05/10 06:03:17;;;;;;;14.73;13.63;;;;;;;8.17;100.00;93070.19;5090752;28;20184;-70
2023/05/10 06:05:43;;;;;;;14.30;13.10;;;;;;;8.25;100.00;93063.00;5090226;28;20334;-70
2023/05/10 06:08:08;;;;;;;13.90;12.77;;;;;;;8.26;100.00;93054.16;5090640;28;20165;-71
2023/05/10 06:10:34;;;;;;;16.63;15.03;;;;;;;8.38;100.00;93062.53;5089146;28;20224;-70
2023/05/10 06:12:59;;;;;;;15.60;14.30;;;;;;;8.32;100.00;93058.34;5090321;28;20181;-69
2023/05/10 06:15:25;;;;;;;13.63;12.63;;;;;;;8.35;100.00;93050.81;5088949;28;20297;-69
2023/05/10 06:17:51;;;;;;;14.00;12.70;;;;;;;8.26;100.00;93069.75;5090699;28;20216;-69
2023/05/10 06:20:17;;;;;;;15.53;14.13;;;;;;;8.45;100.00;93065.69;5072657;28;20284;-68
2023/05/10 06:22:42;;;;;;;14.30;13.03;;;;;;;8.56;100.00;93062.84;5090262;28;20770;-68
2023/05/10 06:25:08;;;;;;;15.43;13.97;;;;;;;8.35;100.00;93065.63;5090167;28;20232;-68
2023/05/10 06:27:34;;;;;;;14.23;12.83;;;;;;;8.42;100.00;93066.97;5090155;28;20181;-69
2023/05/10 06:30:00;;;;;;;16.03;14.73;;;;;;;8.59;100.00;93061.59;5090106;28;20232;-67
2023/05/10 06:32:25;;;;;;;17.13;15.70;;;;;;;8.44;100.00;93079.72;5090337;28;20185;-68
2023/05/10 06:34:50;;;;;;;16.67;15.17;;;;;;;8.58;100.00;93078.22;5088918;28;20244;-70
2023/05/10 06:37:16;;;;;;;16.23;14.83;;;;;;;8.92;100.00;93080.16;5087357;28;20198;-71
2023/05/10 06:39:41;;;;;;;15.37;14.07;;;;;;;8.87;100.00;93085.34;5089095;28;20266;-70
2023/05/10 06:42:07;;;;;;;15.27;13.87;;;;;;;8.84;99.92;93085.09;5088813;28;20437;-68
2023/05/10 06:44:33;;;;;;;14.77;13.47;;;;;;;8.81;99.88;93085.59;5089137;28;20193;-69
2023/05/10 06:46:58;;;;;;;14.43;13.17;;;;;;;8.75;98.59;93076.19;5089838;28;20193;-69
2023/05/10 06:49:23;;;;;;;15.67;14.43;;;;;;;8.57;99.43;93072.25;5089261;28;20181;-71
2023/05/10 06:51:49;;;;;;;14.97;13.77;;;;;;;8.54;99.31;93077.16;5089908;28;20200;-71
2023/05/10 06:54:14;;;;;;;16.50;14.90;;;;;;;8.74;99.75;93075.44;5089714;28;20259;-70
2023/05/10 06:56:40;;;;;;;17.80;14.63;;;;;;;8.68;100.00;93078.25;5089265;28;20777;-70
2023/05/10 06:59:06;;;;;;;15.57;14.10;;;;;;;8.71;99.97;93069.94;5089754;28;20217;-70
2023/05/10 07:01:31;;;;;;;17.83;14.80;;;;;;;8.72;100.00;93074.09;5067400;28;20220;-68
2023/05/10 07:03:57;;;;;;;16.83;15.23;;;;;;;8.69;99.31;93078.00;5089576;28;20192;-71
2023/05/10 07:06:22;;;;;;;15.87;14.37;;;;;;;8.56;100.00;93082.91;5089126;28;20228;-69
2023/05/10 07:08:48;;;;;;;16.10;14.60;;;;;;;8.72;99.02;93089.72;5088803;28;20211;-67
2023/05/10 07:11:13;;;;;;;13.97;12.53;;;;;;;8.72;98.16;93089.72;5088895;28;20249;-68
2023/05/10 07:13:41;;;;;;;14.90;13.60;;;;;;;8.63;96.65;93088.66;5089239;28;20213;-71
2023/05/10 07:16:07;;;;;;;15.80;14.40;;;;;;;8.53;100.00;93094.59;5088952;28;20224;-69
2023/05/10 07:18:33;;;;;;;15.83;14.30;;;;;;;8.66;98.83;93096.75;5089160;28;20212;-69
2023/05/10 07:20:58;;;;;;;14.57;13.27;;;;;;;8.61;99.36;93093.31;5088930;28;20232;-69
2023/05/10 07:23:24;;;;;;;14.40;13.20;;;;;;;8.53;98.03;93083.41;5089295;28;20188;-68
2023/05/10 07:25:54;;;;;;;15.80;14.30;;;;;;;8.66;97.74;93104.53;5088498;28;20296;-68
2023/05/10 07:28:19;;;;;;;15.17;13.87;;;;;;;8.68;98.63;93096.47;5087027;28;20185;-68
2023/05/10 07:30:45;;;;;;;15.27;13.93;;;;;;;8.69;98.96;93085.03;5088315;28;20284;-67
2023/05/10 07:33:12;;;;;;;15.13;13.93;;;;;;;8.79;99.50;93092.88;5087390;28;20204;-69
2023/05/10 07:35:38;;;;;;;13.97;12.73;;;;;;;8.72;96.88;93105.34;5061251;28;20232;-69
2023/05/10 07:38:03;;;;;;;16.27;14.67;;;;;;;8.68;97.44;93091.28;5088883;28;20189;-69
2023/05/10 07:40:29;;;;;;;14.43;13.33;;;;;;;8.73;97.96;93115.50;5070751;28;20254;-70
2023/05/10 07:42:55;;;;;;;14.93;13.57;;;;;;;8.53;96.57;93106.84;5088866;28;20180;-69
2023/05/10 07:45:20;;;;;;;14.70;13.20;;;;;;;8.63;98.14;93104.25;5088379;28;20248;-69
2023/05/10 07:47:46;;;;;;;15.73;13.83;;;;;;;8.88;97.72;93099.16;5088606;28;20212;-69
2023/05/10 07:50:11;;;;;;;14.07;12.93;;;;;;;8.94;98.19;93103.34;5087150;28;20240;-69
2023/05/10 07:52:37;;;;;;;15.93;14.53;;;;;;;8.97;98.31;93110.63;5088657;28;20180;-69
2023/05/10 07:55:02;;;;;;;16.07;14.77;;;;;;;8.90;98.18;93103.06;5087530;28;20247;-69
2023/05/10 07:57:27;;;;;;;15.43;14.23;;;;;;;9.01;97.66;93106.50;5088235;28;20212;-69
2023/05/10 07:59:53;;;;;;;14.93;13.50;;;;;;;8.86;96.19;93065.56;5088003;28;20244;-67
2023/05/10 08:02:18;;;;;;;15.83;14.23;;;;;;;8.92;97.19;93108.81;5088502;28;20215;-70
2023/05/10 08:04:44;;;;;;;18.10;16.57;;;;;;;9.05;97.10;93115.34;5088007;28;20232;-70
2023/05/10 08:07:10;;;;;;;15.23;13.93;;;;;;;9.04;96.57;93096.31;5088646;28;20185;-69
2023/05/10 08:09:35;;;;;;;15.77;14.27;;;;;;;9.15;96.72;93091.94;5086010;28;20224;-67
2023/05/10 08:12:01;;;;;;;16.13;14.73;;;;;;;9.27;94.62;93111.50;5085251;28;20194;-70
2023/05/10 08:14:29;;;;;;;15.70;14.30;;;;;;;9.20;96.37;93116.16;5086693;28;20184;-70
2023/05/10 08:16:55;;;;;;;16.53;15.23;;;;;;;9.23;95.01;93104.47;5065369;28;20251;-71
2023/05/10 08:19:21;;;;;;;15.27;13.83;;;;;;;9.18;93.89;93096.63;5088154;28;20203;-71
2023/05/10 08:21:47;;;;;;;15.93;14.30;;;;;;;9.17;95.05;93101.06;5087747;28;20181;-69
2023/05/10 08:24:12;;;;;;;14.43;13.23;;;;;;;9.36;94.03;93114.38;5087942;28;20210;-69
2023/05/10 08:26:38;;;;;;;15.10;13.80;;;;;;;9.21;94.05;93112.53;5089661;28;20208;-69
2023/05/10 08:29:03;;;;;;;15.13;14.03;;;;;;;9.31;94.77;93107.34;5094657;28;20188;-69
2023/05/10 08:31:28;;;;;;;16.03;14.73;;;;;;;9.50;94.65;93123.25;5088263;28;20227;-69
2023/05/10 08:33:54;;;;;;;16.67;15.17;;;;;;;9.54;94.35;93122.47;5087498;28;20195;-69
2023/05/10 08:36:23;;;;;;;16.37;15.07;;;;;;;9.42;94.99;93128.97;5069682;28;20228;-69
2023/05/10 08:38:50;;;;;;;15.60;14.30;;;;;;;9.30;93.83;93125.84;5088096;28;20184;-69
2023/05/10 08:41:17;;;;;;;14.73;13.33;;;;;;;9.20;93.66;93105.75;5087084;28;20224;-70
2023/05/10 08:43:46;;;;;;;16.97;15.57;;;;;;;9.31;94.48;93117.75;5087933;28;20192;-69
2023/05/10 08:46:17;;;;;;;14.10;12.90;;;;;;;9.35;93.48;93129.22;5084618;28;20223;-69
2023/05/10 08:48:44;;;;;;;15.40;14.00;;;;;;;9.54;93.57;93129.53;5083355;28;20200;-68
2023/05/10 08:51:12;;;;;;;16.23;14.83;;;;;;;9.30;96.26;93120.63;5087741;28;20270;-69
2023/05/10 08:53:38;;;;;;;15.57;14.37;;;;;;;9.22;95.67;93082.84;5078762;28;20188;-69
2023/05/10 08:56:04;;;;;;;15.33;14.03;;;;;;;9.36;96.69;93119.59;5081578;28;20228;-69
2023/05/10 08:58:30;;;;;;;16.00;14.70;;;;;;;9.39;97.11;93127.69;5084546;28;20181;-70
2023/05/10 09:00:56;;;;;;;16.50;15.10;;;;;;;9.25;98.98;93123.22;5087592;28;20929;-68
2023/05/10 09:03:22;;;;;;;15.13;14.03;;;;;;;9.44;97.00;93132.91;5091075;28;20213;-68
2023/05/10 09:05:50;;;;;;;15.70;14.40;;;;;;;9.55;96.90;93128.50;5073302;28;20208;-69
2023/05/10 09:08:17;;;;;;;15.73;14.37;;;;;;;9.60;97.11;93126.66;5091180;28;20173;-67
2023/05/10 09:10:43;;;;;;;15.60;14.30;;;;;;;9.63;96.56;93120.16;5090207;28;20240;-69
2023/05/10 09:13:11;;;;;;;15.03;13.83;;;;;;;9.63;96.95;93120.16;5091199;28;20180;-70
2023/05/10 09:15:37;;;;;;;15.80;14.33;;;;;;;9.49;96.73;93121.72;5091580;28;20250;-70
2023/05/10 09:18:02;;;;;;;17.23;15.83;;;;;;;9.44;95.12;93122.47;5091125;28;20197;-69
2023/05/10 09:20:28;;;;;;;16.23;15.00;;;;;;;9.36;96.80;93109.16;5089991;28;20220;-69
2023/05/10 09:22:53;;;;;;;17.33;15.73;;;;;;;9.58;97.02;93115.72;5091514;28;20197;-69
2023/05/10 09:25:19;;;;;;;16.60;15.30;;;;;;;9.67;95.67;93115.97;5091616;28;20224;-68
2023/05/10 09:27:46;;;;;;;16.30;15.00;;;;;;;9.75;96.20;93118.88;5092242;28;20248;-66
2023/05/10 09:30:28;;;;;;;15.33;14.00;;;;;;;10.09;93.89;93128.78;5091792;28;20237;-69
2023/05/10 09:32:55;;;;;;;17.20;15.60;;;;;;;10.17;94.04;93115.19;5092093;28;20185;-68
2023/05/10 09:35:22;;;;;;;15.57;14.30;;;;;;;10.21;93.85;93113.66;5091966;28;20856;-70
2023/05/10 09:37:56;;;;;;;16.27;14.87;;;;;;;9.95;92.99;93099.81;5092021;28;20209;-68
2023/05/10 09:40:23;;;;;;;16.27;14.80;;;;;;;10.41;93.30;93114.38;5092117;28;20230;-69
2023/05/10 09:42:59;;;;;;;16.07;14.77;;;;;;;10.26;91.48;93114.41;5092010;28;20189;-69
2023/05/10 09:45:26;;;;;;;14.13;12.83;;;;;;;10.08;91.10;93128.00;5091693;28;20322;-69
2023/05/10 09:47:52;;;;;;;17.13;15.63;;;;;;;10.04;93.47;93119.09;5074237;28;20188;-69
2023/05/10 09:50:19;;;;;;;16.50;15.10;;;;;;;10.04;93.40;93124.31;5090988;28;20284;-68
2023/05/10 09:52:58;;;;;;;17.83;16.30;;;;;;;10.08;93.47;93117.56;5091370;28;20199;-72
2023/05/10 09:55:37;;;;;;;16.83;15.43;;;;;;;10.15;92.06;93117.31;5087909;28;20240;-71
2023/05/10 09:58:04;;;;;;;14.97;13.83;;;;;;;10.02;92.11;93092.50;5091033;28;20240;-72
2023/05/10 10:00:35;;;;;;;16.07;14.70;;;;;;;10.00;93.00;93102.41;5091334;28;20247;-71
2023/05/10 10:03:01;;;;;;;17.07;15.37;;;;;;;9.91;94.07;93113.63;5074934;28;20199;-71
2023/05/10 10:05:34;;;;;;;17.00;15.30;;;;;;;10.24;92.09;93110.50;5090860;28;20235;-72
2023/05/10 10:08:03;;;;;;;16.43;15.07;;;;;;;10.14;91.70;93100.06;5091245;28;20204;-72
2023/05/10 10:10:29;;;;;;;20.67;15.53;;;;;;;10.16;93.31;93096.19;5090685;28;20221;-72
2023/05/10 10:12:55;;;;;;;17.83;16.33;;;;;;;9.88;93.23;93090.69;5090494;28;20188;-72
2023/05/10 10:15:21;;;;;;;16.93;15.53;;;;;;;10.00;90.36;93089.38;5091029;28;20276;-71
2023/05/10 10:17:48;;;;;;;17.43;15.93;;;;;;;10.19;90.22;93087.03;5090896;28;20234;-72
2023/05/10 10:20:15;;;;;;;16.40;14.90;;;;;;;10.31;90.43;93090.91;5090749;28;20235;-72
2023/05/10 10:22:40;;;;;;;17.33;15.73;;;;;;;10.02;90.26;93082.09;5091111;28;20186;-71
2023/05/10 10:25:06;;;;;;;17.17;15.47;;;;;;;10.03;90.93;93086.25;5073696;28;20231;-72
2023/05/10 10:27:41;;;;;;;17.07;15.60;;;;;;;10.06;91.10;93093.53;5091313;28;20180;-71
2023/05/10 10:30:21;;;;;;;15.47;14.07;;;;;;;10.05;89.95;93094.59;5083708;28;20235;-72
2023/05/10 10:33:09;;;;;;;17.17;15.60;;;;;;;10.25;90.59;93091.97;5091598;28;20191;-71
2023/05/10 10:35:35;;;;;;;15.63;14.43;;;;;;;9.97;89.76;93084.69;5090890;28;20225;-71
2023/05/10 10:38:00;;;;;;;17.47;16.00;;;;;;;10.38;90.47;93099.25;5091376;28;20189;-71
2023/05/10 10:40:35;;;;;;;16.13;14.73;;;;;;;10.47;88.41;93096.88;5090924;28;20243;-71
2023/05/10 10:43:30;;;;;;;16.97;15.57;;;;;;;10.76;91.01;93093.38;5091027;28;20228;-72
2023/05/10 10:46:25;;;;;;;16.23;14.93;;;;;;;10.87;88.92;93101.97;5071020;28;20259;-72
2023/05/10 10:49:09;;;;;;;16.97;15.60;;;;;;;10.90;88.09;93098.81;5081167;28;20291;-72
2023/05/10 10:51:38;;;;;;;15.60;14.00;;;;;;;10.59;88.01;93090.31;5090743;28;20308;-67
2023/05/10 10:54:10;;;;;;;15.20;13.83;;;;;;;10.45;88.66;93094.53;5090766;28;20220;-69
2023/05/10 10:56:35;;;;;;;17.50;15.93;;;;;;;10.56;88.55;93093.47;5083966;28;20244;-68
2023/05/10 10:59:01;;;;;;;16.73;15.23;;;;;;;10.70;89.09;93089.25;5090520;28;20204;-69
2023/05/10 11:01:32;;;;;;;17.13;15.57;;;;;;;10.53;89.41;93099.22;5090760;28;20296;-67
2023/05/10 11:03:58;;;;;;;15.67;14.33;;;;;;;10.53;87.70;93099.22;5090613;28;20193;-67
2023/05/10 11:06:34;;;;;;;17.33;15.93;;;;;;;10.45;89.72;93109.41;5090038;28;20254;-67
2023/05/10 11:09:11;;;;;;;16.60;15.20;;;;;;;10.41;88.84;93101.31;5073114;28;20192;-67
2023/05/10 11:11:48;;;;;;;16.87;15.33;;;;;;;10.53;88.59;93096.59;5089756;28;20243;-67
2023/05/10 11:14:14;;;;;;;16.43;14.93;;;;;;;10.52;87.92;93089.03;5090014;28;20192;-67
2023/05/10 11:16:43;;;;;;;17.70;15.20;;;;;;;10.62;88.03;93102.84;5089535;28;20248;-68
2023/05/10 11:19:11;;;;;;;15.90;14.67;;;;;;;10.68;87.55;93099.16;5090045;28;20209;-69
2023/05/10 11:22:11;;;;;;;16.07;14.57;;;;;;;10.81;87.22;93098.59;5089324;28;20223;-70